Time;durP1;ratioP1;P1;durP2;ratioP2;P2;SDS_P1;SDS_P2;PMS_P1;PMS_P2;Temp;Humidity;BMP_temperature;BMP_pressure;BME280_temperature;BME280_humidity;BME280_pressure;Samples;Min_cycle;Max_cycle;Signal;HPM_P1;HPM_P2
2023/07/09 00:00:17;;;;;;;;;;;;;;;-140.72;100.00;52129.13;4985822;28;20325;-69
2023/07/09 00:02:43;;;;;;;;;;;;;;;-140.72;100.00;52179.84;4984753;28;19929;-70
2023/07/09 00:05:10;;;;;;;;;;;;;;;-140.72;100.00;52173.75;4982283;28;19922;-69
2023/07/09 00:07:36;;;;;;;;;;;;;;;-140.72;100.00;52149.41;4981737;28;19918;-69
2023/07/09 00:10:01;;;;;;;;;;;;;;;-140.72;100.00;52137.22;4990390;28;19925;-69
2023/07/09 00:12:27;;;;;;;;;;;;;;;-140.72;100.00;52143.31;4994044;28;19922;-69
2023/07/09 00:14:52;;;;;;;;;;;;;;;-140.72;100.00;52137.22;4991711;28;19922;-69
2023/07/09 00:17:21;;;;;;;;;;;;;;;-140.72;100.00;52145.34;4994030;28;19940;-69
2023/07/09 00:19:46;;;;;;;;;;;;;;;-140.72;100.00;52147.38;4989249;28;19951;-69
2023/07/09 00:22:16;;;;;;;;;;;;;;;-140.72;100.00;52141.28;4990419;28;19922;-69
2023/07/09 00:24:44;;;;;;;;;;;;;;;-140.72;100.00;52171.72;4988079;28;19972;-69
2023/07/09 00:27:09;;;;;;;;;;;;;;;-140.72;100.00;52143.31;4980463;28;20385;-69
2023/07/09 00:29:35;;;;;;;;;;;;;;;-140.72;100.00;52171.72;4987966;28;19964;-69
2023/07/09 00:32:00;;;;;;;;;;;;;;;-140.72;100.00;52179.84;4976859;28;20333;-69
2023/07/09 00:34:25;;;;;;;;;;;;;;;-140.72;100.00;52159.56;4986041;28;19976;-69
2023/07/09 00:36:51;;;;;;;;;;;;;;;-140.72;100.00;52139.25;4988162;28;19922;-69
2023/07/09 00:39:20;;;;;;;;;;;;;;;-140.72;100.00;52175.78;4990941;28;20016;-69
2023/07/09 00:41:46;;;;;;;;;;;;;;;-140.72;100.00;52175.78;4988959;28;20020;-69
2023/07/09 00:44:22;;;;;;;;;;;;;;;-140.72;100.00;52214.34;4983863;28;19922;-69
2023/07/09 00:46:48;;;;;;;;;;;;;;;-140.72;100.00;52139.25;4979803;28;19968;-69
2023/07/09 00:49:16;;;;;;;;;;;;;;;-140.72;100.00;52177.81;4992279;28;20052;-70
2023/07/09 00:51:45;;;;;;;;;;;;;;;-140.72;100.00;52183.91;4990830;28;19921;-69
2023/07/09 00:54:22;;;;;;;;;;;;;;;-140.72;100.00;52218.38;4979834;28;20020;-69
2023/07/09 00:56:51;;;;;;;;;;;;;;;-140.72;100.00;52187.97;4981002;28;19926;-69
2023/07/09 00:59:19;;;;;;;;;;;;;;;-140.72;100.00;52192.00;4982920;28;20020;-69
2023/07/09 01:01:47;;;;;;;;;;;;;;;-140.72;100.00;52192.00;4990658;28;19926;-69
2023/07/09 01:04:12;;;;;;;;;;;;;;;-140.72;100.00;52200.13;4989786;28;19988;-69
2023/07/09 01:06:45;;;;;;;;;;;;;;;-140.72;100.00;52192.00;4989800;28;20374;-69
2023/07/09 01:09:10;;;;;;;;;;;;;;;-140.72;100.00;52196.06;4989929;28;19929;-69
2023/07/09 01:11:38;;;;;;;;;;;;;;;-140.72;100.00;52171.72;4989579;28;19928;-69
2023/07/09 01:14:05;;;;;;;;;;;;;;;-140.72;100.00;52194.03;4988807;28;19972;-69
2023/07/09 01:16:33;;;;;;;;;;;;;;;-140.72;100.00;52175.78;4992181;28;20035;-69
2023/07/09 01:19:00;;;;;;;;;;;;;;;-140.72;100.00;52189.97;4989524;28;19929;-69
2023/07/09 01:21:27;;;;;;;;;;;;;;;-140.72;100.00;52196.06;4988765;28;20025;-69
2023/07/09 01:23:52;;;;;;;;;;;;;;;-140.72;100.00;52167.66;4989446;28;19976;-69
2023/07/09 01:26:20;;;;;;;;;;;;;;;-140.72;100.00;52171.72;4983928;28;20388;-69
2023/07/09 01:28:45;;;;;;;;;;;;;;;-140.72;100.00;52159.56;4967736;28;19984;-69
2023/07/09 01:31:11;;;;;;;;;;;;;;;-140.72;100.00;52173.75;4990105;28;19926;-69
2023/07/09 01:33:39;;;;;;;;;;;;;;;-140.72;100.00;52165.63;4989015;28;19945;-69
2023/07/09 01:36:06;;;;;;;;;;;;;;;-140.72;100.00;52206.22;4991538;28;19945;-69
2023/07/09 01:38:32;;;;;;;;;;;;;;;-140.72;100.00;52173.75;4990709;28;19944;-69
2023/07/09 01:40:57;;;;;;;;;;;;;;;-140.72;100.00;52187.97;4990659;28;19922;-69
2023/07/09 01:43:24;;;;;;;;;;;;;;;-140.72;100.00;52183.91;4990413;28;19921;-69
2023/07/09 01:45:50;;;;;;;;;;;;;;;-140.72;100.00;52214.34;4979946;28;19926;-69
2023/07/09 01:48:16;;;;;;;;;;;;;;;-140.72;100.00;52210.28;4982528;28;19926;-69
2023/07/09 01:50:43;;;;;;;;;;;;;;;-140.72;100.00;52206.22;4988961;28;20024;-69
2023/07/09 01:53:09;;;;;;;;;;;;;;;-140.72;100.00;52200.13;4988568;28;19922;-68
2023/07/09 01:55:34;;;;;;;;;;;;;;;-140.72;100.00;52179.84;4985965;28;19921;-69
2023/07/09 01:57:59;;;;;;;;;;;;;;;-140.72;100.00;52210.28;4970896;28;19983;-69
2023/07/09 02:00:25;;;;;;;;;;;;;;;-140.72;100.00;52183.91;4989232;28;19925;-69
2023/07/09 02:02:52;;;;;;;;;;;;;;;-140.72;100.00;52208.25;4987397;28;20272;-68
2023/07/09 02:05:18;;;;;;;;;;;;;;;-140.72;100.00;52228.53;4984217;28;19922;-69
2023/07/09 02:07:43;;;;;;;;;;;;;;;-140.72;100.00;52240.72;4992866;28;19924;-69
2023/07/09 02:10:09;;;;;;;;;;;;;;;-140.72;100.00;52208.25;4973580;28;20375;-69
2023/07/09 02:12:34;;;;;;;;;;;;;;;-140.72;100.00;52161.56;4987118;28;19921;-68
2023/07/09 02:15:00;;;;;;;;;;;;;;;-140.72;100.00;52196.06;4990937;28;20009;-68
2023/07/09 02:17:25;;;;;;;;;;;;;;;-140.72;100.00;52183.91;4991041;28;20100;-68
2023/07/09 02:19:50;;;;;;;;;;;;;;;-140.72;100.00;52206.22;4989696;28;19945;-68
2023/07/09 02:22:16;;;;;;;;;;;;;;;-140.72;100.00;52228.53;4971764;28;19926;-69
2023/07/09 02:24:41;;;;;;;;;;;;;;;-140.72;100.00;52230.56;4990541;28;19925;-69
2023/07/09 02:27:07;;;;;;;;;;;;;;;-140.72;100.00;52212.31;4991247;28;20400;-69
2023/07/09 02:29:33;;;;;;;;;;;;;;;-140.72;100.00;52236.66;4984084;28;20376;-69
2023/07/09 02:32:00;;;;;;;;;;;;;;;-140.72;100.00;52216.34;4987714;28;19930;-69
2023/07/09 02:34:25;;;;;;;;;;;;;;;-140.72;100.00;52224.47;4990511;28;19969;-70
2023/07/09 02:36:51;;;;;;;;;;;;;;;-140.72;100.00;52210.28;4986721;28;19917;-70
2023/07/09 02:39:19;;;;;;;;;;;;;;;-140.72;100.00;52208.25;4991772;28;20403;-70
2023/07/09 02:41:44;;;;;;;;;;;;;;;-140.72;100.00;52163.59;4994163;28;20404;-69
2023/07/09 02:44:10;;;;;;;;;;;;;;;-140.72;100.00;52261.00;4990339;28;19922;-69
2023/07/09 02:46:35;;;;;;;;;;;;;;;-140.72;100.00;52244.78;4988139;28;19974;-69
2023/07/09 02:49:02;;;;;;;;;;;;;;;-140.72;100.00;52230.56;4990580;28;19969;-69
2023/07/09 02:51:28;;;;;;;;;;;;;;;-140.72;100.00;52228.53;4994296;28;20025;-69
2023/07/09 02:53:54;;;;;;;;;;;;;;;-140.72;100.00;52256.94;4995504;28;19961;-70
2023/07/09 02:56:19;;;;;;;;;;;;;;;-140.72;100.00;52236.66;4977803;28;20017;-69
2023/07/09 02:58:44;;;;;;;;;;;;;;;-140.72;100.00;52252.88;4995582;28;19926;-68
2023/07/09 03:01:09;;;;;;;;;;;;;;;-140.72;100.00;52240.72;4993526;28;19960;-69
2023/07/09 03:03:37;;;;;;;;;;;;;;;-140.72;100.00;52244.78;4980136;28;19918;-68
2023/07/09 03:06:02;;;;;;;;;;;;;;;-140.72;100.00;52256.94;4982171;28;19917;-69
2023/07/09 03:08:27;;;;;;;;;;;;;;;-140.72;100.00;52220.41;4994951;28;20009;-69
2023/07/09 03:10:54;;;;;;;;;;;;;;;-140.72;100.00;52236.66;4995411;28;19917;-68
2023/07/09 03:13:19;;;;;;;;;;;;;;;-140.72;100.00;52228.53;4977007;28;19918;-68
2023/07/09 03:15:53;;;;;;;;;;;;;;;-140.72;100.00;52232.59;4975004;28;19929;-68
2023/07/09 03:18:18;;;;;;;;;;;;;;;-140.72;100.00;52273.19;4988966;28;19993;-68
2023/07/09 03:20:43;;;;;;;;;;;;;;;-140.72;100.00;52230.56;4985491;28;20008;-68
2023/07/09 03:23:09;;;;;;;;;;;;;;;-140.72;100.00;52246.78;4994244;28;19993;-68
2023/07/09 03:25:34;;;;;;;;;;;;;;;-140.72;100.00;52246.78;4986229;28;20309;-68
2023/07/09 03:27:59;;;;;;;;;;;;;;;-140.72;100.00;52236.66;4994549;28;19934;-68
2023/07/09 03:30:24;;;;;;;;;;;;;;;-140.72;100.00;52287.38;4994500;28;19933;-68
2023/07/09 03:32:50;;;;;;;;;;;;;;;-140.72;100.00;52252.88;4993749;28;19926;-69
2023/07/09 03:35:15;;;;;;;;;;;;;;;-140.72;100.00;52248.81;4983267;28;19965;-68
2023/07/09 03:37:40;;;;;;;;;;;;;;;-140.72;100.00;52248.81;4985984;28;19997;-69
2023/07/09 03:40:06;;;;;;;;;;;;;;;-140.72;100.00;52224.47;4987524;28;19918;-69
2023/07/09 03:42:32;;;;;;;;;;;;;;;-140.72;100.00;52248.81;4995108;28;20256;-68
2023/07/09 03:44:57;;;;;;;;;;;;;;;-140.72;100.00;52254.91;4994347;28;20008;-69
2023/07/09 03:47:23;;;;;;;;;;;;;;;-140.72;100.00;52228.53;4981063;28;20300;-69
2023/07/09 03:49:48;;;;;;;;;;;;;;;-140.72;100.00;52240.72;4990425;28;19928;-70
2023/07/09 03:52:13;;;;;;;;;;;;;;;-140.72;100.00;52277.22;4994010;28;19918;-69
2023/07/09 03:54:39;;;;;;;;;;;;;;;-140.72;100.00;52234.63;4993394;28;20426;-70
2023/07/09 03:57:04;;;;;;;;;;;;;;;-140.72;100.00;52248.81;4991021;28;19918;-69
2023/07/09 03:59:30;;;;;;;;;;;;;;;-140.72;100.00;52187.97;4978779;28;20395;-69
2023/07/09 04:01:55;;;;;;;;;;;;;;;-140.72;100.00;52256.94;4990796;28;19928;-69
2023/07/09 04:04:20;;;;;;;;;;;;;;;-140.72;100.00;52240.72;4984298;28;19918;-68
2023/07/09 04:06:46;;;;;;;;;;;;;;;-140.72;100.00;52256.94;4989723;28;19925;-69
2023/07/09 04:09:12;;;;;;;;;;;;;;;-140.72;100.00;52208.25;4990642;28;19918;-69
2023/07/09 04:11:37;;;;;;;;;;;;;;;-140.72;100.00;52224.47;4991276;28;19918;-69
2023/07/09 04:14:02;;;;;;;;;;;;;;;-140.72;100.00;52254.91;4993954;28;19918;-69
2023/07/09 04:16:27;;;;;;;;;;;;;;;-140.72;100.00;52226.50;4992154;28;19976;-69
2023/07/09 04:18:53;;;;;;;;;;;;;;;-140.72;100.00;52269.13;4976354;28;19918;-69
2023/07/09 04:21:18;;;;;;;;;;;;;;;-140.72;100.00;52242.75;4991382;28;20009;-69
2023/07/09 04:23:43;;;;;;;;;;;;;;;-140.72;100.00;52269.13;4992306;28;19949;-69
2023/07/09 04:26:12;;;;;;;;;;;;;;;-140.72;100.00;52226.50;4985987;28;19918;-69
2023/07/09 04:28:38;;;;;;;;;;;;;;;-140.72;100.00;52265.06;4975577;28;19953;-69
2023/07/09 04:31:03;;;;;;;;;;;;;;;-140.72;100.00;52224.47;4987815;28;19985;-69
2023/07/09 04:33:29;;;;;;;;;;;;;;;-140.72;100.00;52252.88;4985409;28;20012;-70
2023/07/09 04:35:54;;;;;;;;;;;;;;;-140.72;100.00;52277.22;4987440;28;19918;-70
2023/07/09 04:38:19;;;;;;;;;;;;;;;-140.72;100.00;52244.78;4985065;28;19929;-70
2023/07/09 04:40:46;;;;;;;;;;;;;;;-140.72;100.00;52263.03;4988746;28;19917;-69
2023/07/09 04:43:11;;;;;;;;;;;;;;;-140.72;100.00;52267.09;4981174;28;19925;-67
2023/07/09 04:45:36;;;;;;;;;;;;;;;-140.72;100.00;52226.50;4982641;28;20305;-68
2023/07/09 04:48:02;;;;;;;;;;;;;;;-140.72;100.00;52220.41;4974281;28;19918;-68
2023/07/09 04:50:27;;;;;;;;;;;;;;;-140.72;100.00;52265.06;4990815;28;19972;-68
2023/07/09 04:52:52;;;;;;;;;;;;;;;-140.72;100.00;52230.56;4991938;28;19922;-69
2023/07/09 04:55:18;;;;;;;;;;;;;;;-140.72;100.00;52204.19;4993169;28;20004;-70
2023/07/09 04:58:00;;;;;;;;;;;;;;;-140.72;100.00;52236.66;4983902;28;19918;-71
2023/07/09 05:00:25;;;;;;;;;;;;;;;-140.72;100.00;52228.53;4988417;28;19925;-71
2023/07/09 05:02:50;;;;;;;;;;;;;;;-140.72;100.00;52216.34;4987999;28;19921;-71
2023/07/09 05:05:16;;;;;;;;;;;;;;;-140.72;100.00;52212.31;4988955;28;19918;-70
2023/07/09 05:07:41;;;;;;;;;;;;;;;-140.72;100.00;52242.75;4986325;28;20355;-71
2023/07/09 05:10:07;;;;;;;;;;;;;;;-140.72;100.00;52230.56;4987252;28;20260;-71
2023/07/09 05:12:32;;;;;;;;;;;;;;;-140.72;100.00;52208.25;4991615;28;20044;-71
2023/07/09 05:14:57;;;;;;;;;;;;;;;-140.72;100.00;52196.06;4988841;28;20008;-71
2023/07/09 05:17:23;;;;;;;;;;;;;;;-140.72;100.00;52177.81;4991594;28;19922;-71
2023/07/09 05:19:49;;;;;;;;;;;;;;;-140.72;100.00;52177.81;4984084;28;20381;-71
2023/07/09 05:22:14;;;;;;;;;;;;;;;-140.72;100.00;52169.69;4993030;28;20016;-71
2023/07/09 05:24:39;;;;;;;;;;;;;;;-140.72;100.00;52226.50;4989141;28;19933;-71
2023/07/09 05:27:04;;;;;;;;;;;;;;;-140.72;100.00;52187.97;4988880;28;19944;-71
2023/07/09 05:29:30;;;;;;;;;;;;;;;-140.72;100.00;52177.81;4970424;28;19918;-71
2023/07/09 05:31:57;;;;;;;;;;;;;;;-140.72;100.00;52204.19;4971720;28;19990;-70
2023/07/09 05:34:22;;;;;;;;;;;;;;;-140.72;100.00;52157.53;4990537;28;19918;-72
2023/07/09 05:36:50;;;;;;;;;;;;;;;-140.72;100.00;52175.78;4992300;28;19986;-71
2023/07/09 05:39:16;;;;;;;;;;;;;;;-140.72;100.00;52171.72;4989344;28;20473;-70
2023/07/09 05:41:41;;;;;;;;;;;;;;;-140.72;100.00;52173.75;5003012;28;19918;-71
2023/07/09 05:44:06;;;;;;;;;;;;;;;-140.72;100.00;52220.41;4992890;28;20016;-71
2023/07/09 05:46:38;;;;;;;;;;;;;;;-140.72;100.00;52155.50;4990439;28;20407;-71
2023/07/09 05:49:04;;;;;;;;;;;;;;;-140.72;100.00;52155.50;4992574;28;19922;-71
2023/07/09 05:51:30;;;;;;;;;;;;;;;-140.72;100.00;52149.41;4991419;28;19925;-71
2023/07/09 05:53:55;;;;;;;;;;;;;;;-140.72;100.00;52129.13;4991130;28;19917;-71
2023/07/09 05:56:20;;;;;;;;;;;;;;;-140.72;100.00;52139.25;4992466;28;20351;-71
2023/07/09 05:58:46;;;;;;;;;;;;;;;-140.72;100.00;52196.06;5003330;28;19917;-71
2023/07/09 06:01:12;;;;;;;;;;;;;;;-140.72;100.00;52149.41;4980487;28;19954;-69
2023/07/09 06:03:37;;;;;;;;;;;;;;;-140.72;100.00;52137.22;4989701;28;19933;-71
2023/07/09 06:06:02;;;;;;;;;;;;;;;-140.72;100.00;52131.16;4992541;28;19983;-68
2023/07/09 06:08:28;;;;;;;;;;;;;;;-140.72;100.00;52133.16;4993370;28;20295;-69
2023/07/09 06:10:55;;;;;;;;;;;;;;;-140.72;100.00;52161.56;4993467;28;19921;-68
2023/07/09 06:13:21;;;;;;;;;;;;;;;-140.72;100.00;52104.75;4992295;28;20008;-69
2023/07/09 06:15:47;;;;;;;;;;;;;;;-140.72;100.00;52143.31;4985887;28;19926;-70
2023/07/09 06:18:12;;;;;;;;;;;;;;;-140.72;100.00;52135.19;4984054;28;20395;-69
2023/07/09 06:20:38;;;;;;;;;;;;;;;-140.72;100.00;52145.34;4994025;28;20372;-69
2023/07/09 06:23:03;;;;;;;;;;;;;;;-140.72;100.00;52129.13;4988131;28;20352;-69
2023/07/09 06:25:28;;;;;;;;;;;;;;;-140.72;100.00;52114.91;4988971;28;20027;-73
2023/07/09 06:27:53;;;;;;;;;;;;;;;-140.72;100.00;52088.53;4996411;28;20312;-70
2023/07/09 06:30:19;;;;;;;;;;;;;;;-140.72;100.00;52108.81;4992185;28;19926;-73
2023/07/09 06:32:45;;;;;;;;;;;;;;;-140.72;100.00;52135.19;4985989;28;19922;-70
2023/07/09 06:35:12;;;;;;;;;;;;;;;-140.72;100.00;52094.63;4995287;28;19924;-76
2023/07/09 06:37:37;;;;;;;;;;;;;;;-140.72;100.00;52149.41;4995689;28;19918;-69
2023/07/09 06:40:04;;;;;;;;;;;;;;;-140.72;100.00;52102.75;4995611;28;20024;-69
2023/07/09 06:42:31;;;;;;;;;;;;;;;-140.72;100.00;52112.88;4995484;28;19925;-69
2023/07/09 06:44:56;;;;;;;;;;;;;;;-140.72;100.00;52098.69;4976735;28;19988;-70
2023/07/09 06:47:22;;;;;;;;;;;;;;;-140.72;100.00;52094.63;4978317;28;20336;-70
2023/07/09 06:49:49;;;;;;;;;;;;;;;-140.72;100.00;52102.75;4986390;28;19918;-68
2023/07/09 06:52:14;;;;;;;;;;;;;;;-140.72;100.00;52110.84;4988180;28;19957;-68
2023/07/09 06:54:39;;;;;;;;;;;;;;;-140.72;100.00;52084.47;5001953;28;20000;-67
2023/07/09 06:57:07;;;;;;;;;;;;;;;-140.72;100.00;52078.38;4998133;28;19928;-70
2023/07/09 06:59:32;;;;;;;;;;;;;;;-140.72;91.56;52092.59;4999179;28;19918;-70
2023/07/09 07:01:59;;;;;;;;;;;;;;;-140.72;63.04;52094.63;4985683;28;19929;-70
2023/07/09 07:04:27;;;;;;;;;;;;;;;-140.72;0.00;52074.34;4990803;28;19918;-70
2023/07/09 07:06:52;;;;;;;;;;;;;;;-140.72;0.00;52114.91;4983418;28;19918;-71
2023/07/09 07:09:18;;;;;;;;;;;;;;;-140.72;0.00;52078.38;4990137;28;19926;-72
2023/07/09 07:11:43;;;;;;;;;;;;;;;-140.72;0.00;52123.03;4980344;28;19925;-71
2023/07/09 07:14:08;;;;;;;;;;;;;;;-140.72;0.00;52137.22;4994372;28;20016;-72
2023/07/09 07:16:34;;;;;;;;;;;;;;;-140.72;0.00;52090.56;4984272;28;19969;-72
2023/07/09 07:18:59;;;;;;;;;;;;;;;-140.72;0.00;52062.16;4987640;28;20428;-71
2023/07/09 07:21:24;;;;;;;;;;;;;;;-140.72;0.00;52139.25;4997115;28;20356;-71
2023/07/09 07:23:49;;;;;;;;;;;;;;;-140.72;0.00;52066.22;4990500;28;19922;-72
2023/07/09 07:26:14;;;;;;;;;;;;;;;-140.72;0.00;52094.63;4981071;28;19973;-70
2023/07/09 07:28:40;;;;;;;;;;;;;;;-140.72;0.00;52086.50;4995547;28;20375;-69
2023/07/09 07:31:07;;;;;;;;;;;;;;;-140.72;0.00;52106.78;4991065;28;20056;-71
2023/07/09 07:33:33;;;;;;;;;;;;;;;-140.72;0.00;52114.91;4979387;28;19961;-70
2023/07/09 07:39:01;;;;;;;;;;;;;;;-140.72;0.00;52082.44;4982108;28;19925;-72
2023/07/09 07:41:33;;;;;;;;;;;;;;;-140.72;0.00;52108.81;4982926;28;20288;-72
2023/07/09 07:43:58;;;;;;;;;;;;;;;-140.72;0.00;52118.97;4994444;28;19921;-72
2023/07/09 07:46:36;;;;;;;;;;;;;;;-140.72;0.00;52102.75;4993780;28;20009;-72
2023/07/09 07:49:01;;;;;;;;;;;;;;;-140.72;0.00;52123.03;4994366;28;19922;-72
2023/07/09 07:51:27;;;;;;;;;;;;;;;-140.72;0.00;52123.03;4987716;28;20423;-72
2023/07/09 07:53:55;;;;;;;;;;;;;;;-140.72;0.00;52143.31;4979044;28;19928;-73
2023/07/09 07:56:23;;;;;;;;;;;;;;;-140.72;0.00;52110.84;4984597;28;19918;-73
2023/07/09 07:58:48;;;;;;;;;;;;;;;-140.72;0.00;52082.44;4992096;28;19966;-73
2023/07/09 08:01:13;;;;;;;;;;;;;;;-140.72;0.00;52056.06;4994256;28;20300;-72
2023/07/09 08:03:39;;;;;;;;;;;;;;;-140.72;0.00;52049.97;4994113;28;20013;-72
2023/07/09 08:06:04;;;;;;;;;;;;;;;-140.72;0.00;52068.25;4994493;28;20017;-72
2023/07/09 08:08:29;;;;;;;;;;;;;;;-140.72;0.00;52047.97;4988752;28;19962;-70
2023/07/09 08:11:04;;;;;;;;;;;;;;;-140.72;0.00;52035.78;4976797;28;20364;-72
2023/07/09 08:13:29;;;;;;;;;;;;;;;-140.72;0.00;52049.97;4990562;28;19929;-73
2023/07/09 08:15:55;;;;;;;;;;;;;;;-140.72;0.00;52047.97;4985452;28;19921;-74
2023/07/09 08:18:29;;;;;;;;;;;;;;;-140.72;0.00;52074.34;4986092;28;19926;-70
2023/07/09 08:20:54;;;;;;;;;;;;;;;-140.72;0.00;52031.72;4986836;28;19972;-73
2023/07/09 08:23:19;;;;;;;;;;;;;;;-140.72;0.00;52033.75;4990901;28;19965;-70
2023/07/09 08:25:52;;;;;;;;;;;;;;;-140.72;0.00;52029.69;4986406;28;19922;-70
2023/07/09 08:28:17;;;;;;;;;;;;;;;-140.72;0.00;52029.69;4985172;28;19996;-69
2023/07/09 08:30:42;;;;;;;;;;;;;;;-140.72;0.00;52037.81;4972013;28;20352;-70
2023/07/09 08:33:07;;;;;;;;;;;;;;;-140.72;0.00;52072.31;4982392;28;20348;-69
2023/07/09 08:35:33;;;;;;;;;;;;;;;-140.72;0.00;52076.34;4983653;28;19925;-70
2023/07/09 08:37:58;;;;;;;;;;;;;;;-140.72;0.00;52074.34;4985544;28;20072;-69
2023/07/09 08:40:28;;;;;;;;;;;;;;;-140.72;0.00;52025.63;4983521;28;20407;-69
2023/07/09 08:42:58;;;;;;;;;;;;;;;-140.72;0.00;52023.59;4990665;28;19933;-70
2023/07/09 08:45:28;;;;;;;;;;;;;;;-140.72;0.00;52001.28;4973482;28;20055;-70
2023/07/09 08:48:13;;;;;;;;;;;;;;;-140.72;0.00;52056.06;4989257;28;19928;-70
2023/07/09 08:50:40;;;;;;;;;;;;;;;-140.72;0.00;52047.97;4969616;28;19972;-70
2023/07/09 08:53:13;;;;;;;;;;;;;;;-140.72;0.00;52043.91;4988574;28;20463;-69
2023/07/09 08:55:40;;;;;;;;;;;;;;;-140.72;0.00;52054.03;4990958;28;19930;-70
2023/07/09 08:58:15;;;;;;;;;;;;;;;-140.72;0.00;52029.69;4991827;28;19944;-71
2023/07/09 09:00:44;;;;;;;;;;;;;;;-140.72;0.00;52003.31;4991713;28;20380;-71
2023/07/09 09:03:09;;;;;;;;;;;;;;;-140.72;0.00;52017.53;4989333;28;19953;-71
2023/07/09 09:05:38;;;;;;;;;;;;;;;-140.72;0.00;51981.00;4987867;28;20368;-71
2023/07/09 09:08:27;;;;;;;;;;;;;;;-140.72;0.00;51976.94;4985793;28;19929;-70
2023/07/09 09:11:13;;;;;;;;;;;;;;;-140.72;0.00;51964.78;4990654;28;19922;-70
2023/07/09 09:13:39;;;;;;;;;;;;;;;-140.72;0.00;51914.03;4999482;28;20384;-71
2023/07/09 09:16:11;;;;;;;;;;;;;;;-140.72;0.00;51901.88;4994395;28;19928;-71
2023/07/09 09:18:41;;;;;;;;;;;;;;;-140.72;0.00;51928.25;4992169;28;19965;-71
2023/07/09 09:21:12;;;;;;;;;;;;;;;-140.72;0.00;51867.38;4987819;28;19973;-71
2023/07/09 09:23:40;;;;;;;;;;;;;;;-140.72;0.00;51891.72;4970420;28;19922;-70
2023/07/09 09:26:14;;;;;;;;;;;;;;;-140.72;0.00;51879.56;4990574;28;20407;-71
2023/07/09 09:28:39;;;;;;;;;;;;;;;-140.72;0.00;51891.72;4992406;28;19928;-71
2023/07/09 09:31:06;;;;;;;;;;;;;;;-140.72;0.00;51822.75;4971624;28;19922;-71
2023/07/09 09:33:42;;;;;;;;;;;;;;;-140.72;0.00;51836.94;4992829;28;19922;-69
2023/07/09 09:36:14;;;;;;;;;;;;;;;-140.72;0.00;51796.38;4983963;28;19928;-71
2023/07/09 09:38:39;;;;;;;;;;;;;;;-140.72;0.00;51800.44;4984653;28;19968;-71
2023/07/09 09:41:04;;;;;;;;;;;;;;;-140.72;0.00;51826.81;4985496;28;19960;-71
2023/07/09 09:43:32;;;;;;;;;;;;;;;-140.72;0.00;51806.53;4987433;28;20380;-71
2023/07/09 09:45:59;;;;;;;;;;;;;;;-140.72;0.00;51808.53;4989349;28;19929;-71
2023/07/09 09:48:31;;;;;;;;;;;;;;;-140.72;0.00;51826.81;4987013;28;19921;-71
2023/07/09 09:51:01;;;;;;;;;;;;;;;-140.72;0.00;51761.88;4987306;28;20376;-71
2023/07/09 09:53:27;;;;;;;;;;;;;;;-140.72;0.00;51790.28;4990879;28;19922;-71
2023/07/09 09:55:54;;;;;;;;;;;;;;;-140.72;0.00;51749.72;4989767;28;20249;-71
2023/07/09 09:58:19;;;;;;;;;;;;;;;-140.72;0.00;51782.16;4987968;28;20056;-71
2023/07/09 10:00:52;;;;;;;;;;;;;;;-140.72;0.00;51711.16;4985719;28;20020;-71
2023/07/09 10:03:17;;;;;;;;;;;;;;;-140.72;0.00;51786.22;4992550;28;19933;-71
2023/07/09 10:05:57;;;;;;;;;;;;;;;-140.72;0.00;51808.53;4990410;28;19969;-71
2023/07/09 10:08:37;;;;;;;;;;;;;;;-140.72;0.00;51784.19;4990841;28;20319;-70
2023/07/09 10:11:12;;;;;;;;;;;;;;;-140.72;0.00;51761.88;4991552;28;19930;-70
2023/07/09 10:13:41;;;;;;;;;;;;;;;-140.72;0.00;51822.75;4988589;28;20013;-71
2023/07/09 10:16:16;;;;;;;;;;;;;;;-140.72;0.00;51770.00;4990336;28;19926;-71
2023/07/09 10:18:53;;;;;;;;;;;;;;;-140.72;0.00;51721.31;4986034;28;19965;-71
2023/07/09 10:21:24;;;;;;;;;;;;;;;-140.72;0.00;51692.91;4973500;28;20004;-71
2023/07/09 10:23:49;;;;;;;;;;;;;;;-140.72;0.00;51636.09;4989033;28;19922;-71
2023/07/09 10:26:18;;;;;;;;;;;;;;;-140.72;0.00;51640.16;4971281;28;20023;-71
2023/07/09 10:29:07;;;;;;;;;;;;;;;-140.72;0.00;51607.69;4990717;28;19984;-71
2023/07/09 10:31:35;;;;;;;;;;;;;;;-140.72;0.00;51636.09;4988450;28;20300;-71
2023/07/09 10:34:09;;;;;;;;;;;;;;;-140.72;0.00;51630.00;4990305;28;19934;-71
2023/07/09 10:36:42;;;;;;;;;;;;;;;-140.72;0.00;51593.50;4987556;28;19934;-71
2023/07/09 10:39:20;;;;;;;;;;;;;;;-140.72;0.00;51552.94;4991206;28;20415;-71
2023/07/09 10:41:46;;;;;;;;;;;;;;;-140.72;0.00;51526.56;4983541;28;20423;-72
2023/07/09 10:44:21;;;;;;;;;;;;;;;-140.72;0.00;51632.03;4989447;28;19922;-72
2023/07/09 10:46:49;;;;;;;;;;;;;;;-140.72;0.00;51721.31;4990608;28;19929;-71
2023/07/09 10:49:15;;;;;;;;;;;;;;;-140.72;0.00;51784.19;4989373;28;19929;-71
2023/07/09 10:52:03;;;;;;;;;;;;;;;-140.72;0.00;51818.69;4989759;28;19929;-71
2023/07/09 10:54:39;;;;;;;;;;;;;;;-140.72;0.00;51774.06;4987627;28;19929;-71
2023/07/09 10:57:17;;;;;;;;;;;;;;;-140.72;0.00;51713.19;4990473;28;19922;-71
2023/07/09 10:59:46;;;;;;;;;;;;;;;-140.72;0.00;51638.13;5004510;28;19922;-70
2023/07/09 11:02:29;;;;;;;;;;;;;;;-140.72;0.00;51611.75;4992499;28;20001;-72
2023/07/09 11:04:55;;;;;;;;;;;;;;;-140.72;0.00;51548.88;4991004;28;20451;-70
2023/07/09 11:07:27;;;;;;;;;;;;;;;-140.72;0.00;51544.81;4988701;28;19961;-71
2023/07/09 11:09:56;;;;;;;;;;;;;;;-140.72;0.00;51611.75;4989989;28;20025;-71
2023/07/09 11:12:29;;;;;;;;;;;;;;;-140.72;0.00;51692.91;4989462;28;20419;-70
2023/07/09 11:14:56;;;;;;;;;;;;;;;-140.72;0.00;51652.34;4988956;28;19922;-71
2023/07/09 11:17:22;;;;;;;;;;;;;;;-140.72;0.00;51741.59;4989309;28;19922;-69
2023/07/09 11:19:53;;;;;;;;;;;;;;;-140.72;0.00;51686.81;4989977;28;19997;-71
2023/07/09 11:22:23;;;;;;;;;;;;;;;-140.72;0.00;51753.78;4987523;28;19922;-71
2023/07/09 11:24:50;;;;;;;;;;;;;;;-140.72;0.00;51782.16;4986954;28;19941;-71
2023/07/09 11:27:20;;;;;;;;;;;;;;;-140.72;0.00;51806.53;4979643;28;19929;-71
2023/07/09 11:29:47;;;;;;;;;;;;;;;-140.72;0.00;51861.28;4988233;28;20084;-71
2023/07/09 11:32:18;;;;;;;;;;;;;;;-140.72;0.00;51859.28;4988679;28;20398;-71
2023/07/09 11:34:46;;;;;;;;;;;;;;;-140.72;0.00;51873.47;4973284;28;20013;-71
2023/07/09 11:37:12;;;;;;;;;;;;;;;-140.72;0.00;51733.47;4989499;28;19922;-71
2023/07/09 11:39:38;;;;;;;;;;;;;;;-140.72;0.00;51743.63;4971956;28;20008;-70
2023/07/09 11:42:03;;;;;;;;;;;;;;;-140.72;0.00;51747.69;4988905;28;20020;-71
2023/07/09 11:44:30;;;;;;;;;;;;;;;-140.72;0.00;51739.56;4969561;28;19926;-71
2023/07/09 11:46:55;;;;;;;;;;;;;;;-140.72;0.00;51749.72;4988713;28;19921;-71
2023/07/09 11:49:23;;;;;;;;;;;;;;;-140.72;0.00;51763.91;4990139;28;20268;-70
2023/07/09 11:51:50;;;;;;;;;;;;;;;-140.72;0.00;51841.00;4989346;28;19964;-71
2023/07/09 11:54:18;;;;;;;;;;;;;;;-140.72;0.00;51794.34;4987073;28;20360;-71
2023/07/09 11:56:52;;;;;;;;;;;;;;;-140.72;0.00;51757.81;4971342;28;19972;-71
2023/07/09 11:59:17;;;;;;;;;;;;;;;-140.72;0.00;51812.59;4970480;28;19933;-70
2023/07/09 12:01:44;;;;;;;;;;;;;;;-140.72;0.00;51792.31;4969268;28;19921;-71
2023/07/09 12:04:16;;;;;;;;;;;;;;;-140.72;0.00;51853.19;4972094;28;19953;-71
2023/07/09 12:06:42;;;;;;;;;;;;;;;-140.72;0.00;51869.41;4988238;28;19928;-71
2023/07/09 12:09:14;;;;;;;;;;;;;;;-140.72;0.00;51871.44;4965977;28;20287;-71
2023/07/09 12:11:43;;;;;;;;;;;;;;;-140.72;0.00;51869.41;4972282;28;19961;-71
2023/07/09 12:14:17;;;;;;;;;;;;;;;-140.72;0.00;51841.00;4988336;28;21432;-71
2023/07/09 12:16:46;;;;;;;;;;;;;;;-140.72;0.00;51873.47;4985670;28;19941;-71
2023/07/09 12:19:12;;;;;;;;;;;;;;;-140.72;0.00;51857.25;4989267;28;20001;-72
2023/07/09 12:21:39;;;;;;;;;;;;;;;-140.72;0.00;51778.13;4967286;28;19937;-71
2023/07/09 12:24:15;;;;;;;;;;;;;;;-140.72;0.00;51810.56;4987383;28;19928;-71
2023/07/09 12:26:41;;;;;;;;;;;;;;;-140.72;0.00;51812.59;4986233;28;19930;-71
2023/07/09 12:29:07;;;;;;;;;;;;;;;-140.72;0.00;51830.88;4988865;28;20013;-70